Abilene Regional Airport
KABI : now visible

Airfield :











YOU CAN JOIN US ON...

 
LOGIN :

Register | Disclaimer

   EN    FR    IT 

 









Legend :    VFR   Marginal VFR   IFR   Intensive IFR   Very Intensive IFR
Visi :
Ceiling :
>= 8 km
>= 3000ft
5 to 8 km
1000 to 3000 ft
1500m to 5 km
500 to 1000 ft
800 to 1500m
200 to 500 ft
< 800m
< 200 ft
Symbols :   Thunderstorms  Fog  Heavy snow  Heavy precipitations  Wind > 20 kt






- Airport Elevation : 1791 ft


KABI - Abilene Regional

CURRENT METAR :
  • 060310Z 16010KT 10SM BKN015 15/15 A2999 RMK AO2 T01500150

EXPIRED METARs :
  • 060252Z 15009KT 10SM CLR 14/14 A2998 RMK AO2 SLP144 T01440144 53008
  • 060152Z 15010KT 10SM CLR 16/14 A2997 RMK AO2 SLP139 T01560144
  • 060107Z 15011KT 10SM FEW021 16/15 A2995 RMK AO2 T01610150
  • 060052Z 15014KT 10SM BKN021 17/14 A2995 RMK AO2 SLP133 T01720144

TAF KABI
Valid from the 06 at 02:00 until the 07 at 00:00 UTC


060214Z 0602/0624 15010KT P6SM SCT015
FM060400 15012KT P6SM BKN015
FM060700 16011KT 6SM BR OVC008
FM061500 19011KT P6SM OVC015
FM062000 18011KT P6SM BKN050



MET'MAP, your aeronautical weather chart ! - Copyright ORBIFLY December 2007 - Disclaimer

ORBIFLY MET'MAP TEAM :

Programming & Development : Alexandra Zaïnal
Concept & original design : Baudouin d'Aumeries
Assistance for programming : Marc-Olivier Méhu
Technical & hardware support : Manuel Goepfert

Contact : metmap@orbifly.com




SOURCES & CREDITS :

   NOAA       Earth
Advisory